Time;durP1;ratioP1;P1;durP2;ratioP2;P2;SDS_P1;SDS_P2;PMS_P1;PMS_P2;Temp;Humidity;BMP_temperature;BMP_pressure;BME280_temperature;BME280_humidity;BME280_pressure;Samples;Min_cycle;Max_cycle;Signal;HPM_P1;HPM_P2
2021/04/30 00:00:13;;;;;;;20.88;10.52;;;4.70;99.90;;;;;;5034938;28;20116;-62
2021/04/30 00:02:41;;;;;;;18.65;9.85;;;4.70;99.90;;;;;;5042845;28;20070;-62
2021/04/30 00:05:18;;;;;;;20.42;9.40;;;4.70;99.90;;;;;;5058129;28;20031;-61
2021/04/30 00:07:44;;;;;;;17.55;9.70;;;4.70;99.90;;;;;;5039292;28;20033;-62
2021/04/30 00:10:10;;;;;;;14.85;9.40;;;4.70;99.90;;;;;;5054083;28;20111;-62
2021/04/30 00:12:36;;;;;;;17.45;9.68;;;4.70;99.90;;;;;;5053552;28;20024;-62
2021/04/30 00:15:03;;;;;;;20.75;9.23;;;4.70;99.90;;;;;;5056586;28;20029;-63
2021/04/30 00:17:29;;;;;;;16.27;9.05;;;4.60;99.90;;;;;;5046171;28;20064;-63
2021/04/30 00:19:54;;;;;;;17.63;9.55;;;4.70;99.90;;;;;;5059485;28;20110;-63
2021/04/30 00:22:20;;;;;;;20.95;8.73;;;4.60;99.90;;;;;;5053354;28;20776;-63
2021/04/30 00:24:46;;;;;;;20.63;9.07;;;4.70;99.90;;;;;;5045573;28;20021;-60
2021/04/30 00:27:11;;;;;;;16.15;9.23;;;4.70;99.90;;;;;;5048878;28;20115;-63
2021/04/30 00:29:37;;;;;;;15.93;8.48;;;4.60;99.90;;;;;;5051168;28;20017;-63
2021/04/30 00:32:02;;;;;;;16.55;7.63;;;4.60;99.90;;;;;;5056978;28;20029;-63
2021/04/30 00:34:28;;;;;;;20.27;8.98;;;4.60;99.90;;;;;;5050708;28;20375;-56
2021/04/30 00:36:53;;;;;;;16.15;7.72;;;4.60;99.90;;;;;;5039924;28;20112;-62
2021/04/30 00:39:19;;;;;;;18.08;8.75;;;4.60;99.90;;;;;;5051291;28;20159;-62
2021/04/30 00:41:45;;;;;;;18.95;8.90;;;4.60;99.90;;;;;;5054424;28;20025;-62
2021/04/30 00:44:11;;;;;;;17.92;8.90;;;4.60;99.90;;;;;;5061529;28;20048;-63
2021/04/30 00:46:37;;;;;;;16.20;9.82;;;4.50;99.90;;;;;;5045879;28;20056;-61
2021/04/30 00:49:03;;;;;;;16.90;9.93;;;4.40;99.90;;;;;;5064935;28;20017;-63
2021/04/30 00:51:29;;;;;;;23.40;10.35;;;4.40;99.90;;;;;;5052924;28;20025;-62
2021/04/30 00:53:55;;;;;;;24.25;10.43;;;4.40;99.90;;;;;;5048040;28;20079;-63
2021/04/30 00:56:21;;;;;;;19.38;9.13;;;4.20;99.90;;;;;;5048976;28;20044;-63
2021/04/30 00:58:48;;;;;;;17.00;10.05;;;4.20;99.90;;;;;;5058133;28;20069;-61
2021/04/30 01:01:14;;;;;;;17.63;8.90;;;4.20;99.90;;;;;;5057399;28;20103;-64
2021/04/30 01:03:43;;;;;;;16.55;9.73;;;4.10;99.90;;;;;;5051191;28;20048;-63
2021/04/30 01:06:09;;;;;;;20.30;11.13;;;4.10;99.90;;;;;;5048720;28;20500;-62
2021/04/30 01:08:34;;;;;;;21.55;10.43;;;4.10;99.90;;;;;;5056715;28;20033;-63
2021/04/30 01:11:00;;;;;;;18.85;10.05;;;4.20;99.90;;;;;;5056449;28;20027;-63
2021/04/30 01:13:26;;;;;;;17.15;8.77;;;4.30;99.90;;;;;;5057286;28;20028;-62
2021/04/30 01:15:51;;;;;;;21.73;9.30;;;4.40;99.90;;;;;;5055341;28;20027;-62
2021/04/30 01:18:17;;;;;;;21.02;8.10;;;4.50;99.90;;;;;;5062456;28;20101;-62
2021/04/30 01:20:42;;;;;;;19.15;8.18;;;4.60;99.90;;;;;;5052015;28;20071;-63
2021/04/30 01:23:08;;;;;;;19.23;8.07;;;4.70;99.90;;;;;;5045095;28;20025;-63
2021/04/30 01:25:38;;;;;;;18.85;8.75;;;4.80;99.90;;;;;;5058584;28;20080;-63
2021/04/30 01:28:05;;;;;;;20.65;9.18;;;4.90;99.90;;;;;;5062823;28;20025;-62
2021/04/30 01:30:35;;;;;;;20.05;9.73;;;5.00;99.90;;;;;;5057707;28;20486;-62
2021/04/30 01:33:02;;;;;;;19.95;10.55;;;5.00;99.90;;;;;;5054134;28;20025;-63
2021/04/30 01:35:34;;;;;;;18.88;7.70;;;5.10;99.90;;;;;;5061474;28;20077;-63
2021/04/30 01:38:01;;;;;;;18.33;7.85;;;5.10;99.90;;;;;;5052501;28;20056;-64
2021/04/30 01:40:30;;;;;;;19.50;7.25;;;5.10;99.90;;;;;;5058789;28;20024;-58
2021/04/30 01:43:08;;;;;;;19.02;6.95;;;5.10;99.90;;;;;;5057499;28;20386;-62
2021/04/30 01:45:35;;;;;;;16.92;7.97;;;5.20;99.90;;;;;;5054297;28;20033;-63
2021/04/30 01:48:03;;;;;;;12.52;7.40;;;5.20;99.90;;;;;;5058080;28;20048;-63
2021/04/30 01:50:29;;;;;;;18.08;7.20;;;5.30;99.90;;;;;;5052938;28;20044;-56
2021/04/30 01:52:55;;;;;;;19.10;7.18;;;5.30;99.90;;;;;;5056423;28;20447;-63
2021/04/30 01:55:25;;;;;;;21.00;7.43;;;5.30;99.90;;;;;;5056011;28;20087;-63
2021/04/30 01:57:50;;;;;;;20.17;8.50;;;5.30;99.90;;;;;;5047910;28;20551;-63
2021/04/30 02:00:29;;;;;;;20.77;8.45;;;5.30;99.90;;;;;;5060306;28;20099;-62
2021/04/30 02:02:57;;;;;;;18.02;7.72;;;5.40;99.90;;;;;;5058122;28;20066;-63
2021/04/30 02:05:28;;;;;;;17.17;7.18;;;5.40;99.90;;;;;;5053084;28;20036;-64
2021/04/30 02:07:59;;;;;;;14.38;8.10;;;5.40;99.90;;;;;;5048362;28;20029;-61
2021/04/30 02:10:25;;;;;;;20.20;7.90;;;5.40;99.90;;;;;;5049948;28;20030;-62
2021/04/30 02:12:52;;;;;;;15.13;7.95;;;5.30;99.90;;;;;;5057120;28;20116;-62
2021/04/30 02:15:20;;;;;;;18.63;7.88;;;5.30;99.90;;;;;;5067770;28;20033;-62
2021/04/30 02:17:46;;;;;;;20.05;9.23;;;5.40;99.90;;;;;;5055080;28;20047;-63
2021/04/30 02:20:12;;;;;;;20.83;9.43;;;5.30;99.90;;;;;;5063887;28;20017;-63
2021/04/30 02:22:39;;;;;;;16.00;8.75;;;5.30;99.90;;;;;;5061033;28;20013;-62
2021/04/30 02:25:07;;;;;;;23.90;10.18;;;5.30;99.90;;;;;;5050805;28;20085;-62
2021/04/30 02:27:32;;;;;;;18.00;9.05;;;5.40;99.90;;;;;;5059677;28;20517;-62
2021/04/30 02:29:58;;;;;;;22.33;10.15;;;5.40;99.90;;;;;;5058568;28;20041;-63
2021/04/30 02:32:24;;;;;;;18.15;9.75;;;5.40;99.90;;;;;;5066672;28;20036;-63
2021/04/30 02:34:52;;;;;;;27.73;10.98;;;5.40;99.90;;;;;;5050648;28;20145;-62
2021/04/30 02:37:18;;;;;;;24.25;10.88;;;5.50;99.90;;;;;;5063180;28;20497;-63
2021/04/30 02:39:44;;;;;;;26.15;10.25;;;5.40;99.90;;;;;;5058165;28;20051;-59
2021/04/30 02:42:09;;;;;;;22.48;10.10;;;5.40;99.90;;;;;;5061075;28;20020;-62
2021/04/30 02:44:35;;;;;;;20.55;10.10;;;5.40;99.90;;;;;;5057592;28;20029;-63
2021/04/30 02:47:01;;;;;;;19.42;10.88;;;5.40;99.90;;;;;;5055116;28;20108;-62
2021/04/30 02:49:44;;;;;;;19.92;10.60;;;5.40;99.90;;;;;;5052120;28;20025;-63
2021/04/30 02:52:11;;;;;;;19.50;10.85;;;5.40;99.90;;;;;;5054415;28;20389;-63
2021/04/30 02:54:38;;;;;;;20.08;10.57;;;5.50;99.90;;;;;;5061443;28;20055;-63
2021/04/30 02:57:04;;;;;;;19.58;10.75;;;5.50;99.90;;;;;;5061407;28;20106;-63
2021/04/30 02:59:30;;;;;;;22.55;10.98;;;5.50;99.90;;;;;;5063197;28;20024;-62
2021/04/30 03:01:56;;;;;;;18.17;10.88;;;5.50;99.90;;;;;;5061191;28;20060;-62
2021/04/30 03:04:22;;;;;;;19.38;11.20;;;5.50;99.90;;;;;;5052647;28;20059;-62
2021/04/30 03:06:48;;;;;;;21.77;11.40;;;5.50;99.90;;;;;;5048186;28;20394;-62
2021/04/30 03:09:14;;;;;;;18.20;10.82;;;5.50;99.90;;;;;;5050241;28;20025;-61
2021/04/30 03:11:40;;;;;;;23.77;11.43;;;5.50;99.90;;;;;;5049532;28;20031;-59
2021/04/30 03:14:05;;;;;;;23.27;12.13;;;5.50;99.90;;;;;;5055901;28;20024;-61
2021/04/30 03:16:31;;;;;;;23.27;12.07;;;5.50;99.90;;;;;;5054693;28;20025;-63
2021/04/30 03:18:57;;;;;;;18.92;11.20;;;5.50;99.90;;;;;;5062250;28;20111;-62
2021/04/30 03:21:24;;;;;;;28.92;12.27;;;5.50;99.90;;;;;;5047671;28;20562;-62
2021/04/30 03:23:49;;;;;;;24.92;12.48;;;5.50;99.90;;;;;;5058734;28;20064;-63
2021/04/30 03:26:15;;;;;;;21.77;11.48;;;5.60;99.90;;;;;;5058311;28;20055;-63
2021/04/30 03:28:41;;;;;;;22.85;11.25;;;5.60;99.90;;;;;;5061189;28;20032;-63
2021/04/30 03:31:06;;;;;;;24.95;11.15;;;5.50;99.90;;;;;;5043228;28;20268;-62
2021/04/30 03:33:32;;;;;;;25.33;12.38;;;5.50;99.90;;;;;;5047784;28;20132;-63
2021/04/30 03:35:57;;;;;;;18.85;12.90;;;5.50;99.90;;;;;;5052304;28;20025;-63
2021/04/30 03:38:23;;;;;;;23.13;12.25;;;5.50;99.90;;;;;;5041629;28;20053;-63
2021/04/30 03:40:49;;;;;;;23.45;13.15;;;5.50;99.90;;;;;;5056305;28;20489;-61
2021/04/30 03:43:15;;;;;;;33.08;14.52;;;5.50;99.90;;;;;;5059650;28;20063;-63
2021/04/30 03:45:41;;;;;;;26.05;13.48;;;5.60;99.90;;;;;;5052908;28;20060;-58
2021/04/30 03:48:07;;;;;;;22.63;13.35;;;5.60;99.90;;;;;;5059564;28;20021;-63
2021/04/30 03:50:32;;;;;;;23.02;12.43;;;5.60;99.90;;;;;;5053912;28;20533;-63
2021/04/30 03:52:58;;;;;;;23.60;13.73;;;5.60;99.90;;;;;;5053501;28;20022;-63
2021/04/30 03:55:24;;;;;;;27.77;14.55;;;5.50;99.90;;;;;;5047317;28;20036;-63
2021/04/30 03:57:49;;;;;;;25.05;14.48;;;5.50;99.90;;;;;;5050408;28;20032;-63
2021/04/30 04:00:15;;;;;;;37.90;15.73;;;5.60;99.90;;;;;;5046272;28;20086;-59
2021/04/30 04:02:41;;;;;;;29.45;14.82;;;5.60;99.90;;;;;;5049599;28;20533;-63
2021/04/30 04:05:07;;;;;;;26.05;16.23;;;5.50;99.90;;;;;;5044186;28;20028;-63
2021/04/30 04:07:33;;;;;;;27.38;15.38;;;5.50;99.90;;;;;;5054732;28;20267;-63
2021/04/30 04:09:58;;;;;;;32.53;16.40;;;5.50;99.90;;;;;;5043210;28;20505;-63
2021/04/30 04:12:24;;;;;;;32.35;16.70;;;5.50;99.90;;;;;;5036927;28;20048;-63
2021/04/30 04:14:49;;;;;;;27.52;17.20;;;5.50;99.90;;;;;;5039431;28;20666;-63
2021/04/30 04:17:16;;;;;;;24.77;15.07;;;5.50;99.90;;;;;;5039535;28;20383;-64
2021/04/30 04:19:48;;;;;;;25.27;16.45;;;5.40;99.90;;;;;;5038264;28;20044;-57
2021/04/30 04:22:14;;;;;;;28.50;16.17;;;5.40;99.90;;;;;;5042684;28;20596;-63
2021/04/30 04:24:40;;;;;;;30.17;16.15;;;5.40;99.90;;;;;;5039567;28;20029;-63
2021/04/30 04:27:06;;;;;;;31.42;17.98;;;5.30;99.90;;;;;;5041915;28;20025;-63
2021/04/30 04:29:31;;;;;;;39.88;18.20;;;5.30;99.90;;;;;;5038296;28;20024;-63
2021/04/30 04:31:57;;;;;;;34.85;17.77;;;5.30;99.90;;;;;;5039178;28;20029;-63
2021/04/30 04:34:22;;;;;;;32.92;18.10;;;5.30;99.90;;;;;;5032203;28;20060;-63
2021/04/30 04:36:48;;;;;;;32.95;18.83;;;5.30;99.90;;;;;;5045714;28;20030;-62
2021/04/30 04:39:13;;;;;;;29.00;19.13;;;5.30;99.90;;;;;;5052709;28;20104;-63
2021/04/30 04:41:39;;;;;;;35.20;18.35;;;5.30;99.90;;;;;;5044413;28;20029;-63
2021/04/30 04:44:05;;;;;;;35.58;18.80;;;5.30;99.90;;;;;;5053337;28;20029;-63
2021/04/30 04:46:30;;;;;;;31.40;19.77;;;5.30;99.90;;;;;;5044591;28;20017;-63
2021/04/30 04:48:56;;;;;;;36.08;20.05;;;5.30;99.90;;;;;;5042102;28;20490;-62
2021/04/30 04:51:21;;;;;;;30.52;19.75;;;5.30;99.90;;;;;;5051641;28;20036;-63
2021/04/30 04:53:47;;;;;;;29.70;17.77;;;5.40;99.90;;;;;;5043065;28;20028;-63
2021/04/30 04:56:12;;;;;;;30.60;18.25;;;5.40;99.90;;;;;;5056787;28;20021;-63
2021/04/30 04:58:38;;;;;;;29.52;18.50;;;5.40;99.90;;;;;;5056919;28;20021;-63
2021/04/30 05:01:06;;;;;;;35.67;18.60;;;5.40;99.90;;;;;;5042412;28;20025;-63
2021/04/30 05:03:31;;;;;;;28.98;18.60;;;5.40;99.90;;;;;;5046407;28;20033;-59
2021/04/30 05:05:57;;;;;;;34.70;17.83;;;5.50;99.90;;;;;;5058498;28;20029;-63
2021/04/30 05:08:22;;;;;;;30.05;19.25;;;5.50;99.90;;;;;;5052250;28;20056;-63
2021/04/30 05:10:48;;;;;;;32.17;18.95;;;5.50;99.90;;;;;;5052759;28;20386;-63
2021/04/30 05:13:13;;;;;;;26.10;17.90;;;5.50;99.90;;;;;;5056490;28;20040;-64
2021/04/30 05:15:39;;;;;;;30.40;18.42;;;5.60;99.90;;;;;;5058528;28;20040;-63
2021/04/30 05:18:05;;;;;;;30.83;18.55;;;5.60;99.90;;;;;;5049024;28;20090;-61
2021/04/30 05:20:30;;;;;;;26.83;17.05;;;5.60;99.90;;;;;;5045831;28;20042;-62
2021/04/30 05:22:56;;;;;;;29.05;17.73;;;5.60;99.90;;;;;;5046162;28;20092;-64
2021/04/30 05:25:21;;;;;;;27.15;17.08;;;5.60;99.90;;;;;;5057941;28;20326;-64
2021/04/30 05:27:47;;;;;;;24.98;16.52;;;5.60;99.90;;;;;;5056684;28;20378;-62
2021/04/30 05:30:13;;;;;;;25.80;18.17;;;5.60;99.90;;;;;;5058265;28;20099;-64
2021/04/30 05:32:39;;;;;;;22.67;16.00;;;5.60;99.90;;;;;;5054286;28;20025;-63
2021/04/30 05:35:06;;;;;;;30.88;17.17;;;5.70;99.90;;;;;;5044881;28;20033;-63
2021/04/30 05:37:32;;;;;;;30.83;19.05;;;5.70;99.90;;;;;;5048026;28;20029;-64
2021/04/30 05:39:59;;;;;;;31.38;17.88;;;5.80;99.90;;;;;;5046141;28;20041;-63
2021/04/30 05:42:26;;;;;;;34.47;18.02;;;5.80;99.90;;;;;;5046025;28;20040;-63
2021/04/30 05:44:53;;;;;;;24.25;16.77;;;5.80;99.90;;;;;;5054858;28;20040;-64
2021/04/30 05:47:19;;;;;;;30.05;17.88;;;5.80;99.90;;;;;;5052315;28;20082;-65
2021/04/30 05:49:45;;;;;;;24.45;16.45;;;5.90;99.90;;;;;;5049755;28;20061;-63
2021/04/30 05:52:11;;;;;;;30.92;17.08;;;5.90;99.90;;;;;;5060769;28;20079;-63
2021/04/30 05:54:36;;;;;;;21.60;15.43;;;5.90;99.90;;;;;;5049797;28;20053;-63
2021/04/30 05:57:02;;;;;;;22.48;16.27;;;5.90;99.90;;;;;;5058173;28;20021;-63
2021/04/30 05:59:27;;;;;;;25.92;18.17;;;5.90;99.90;;;;;;5056194;28;20033;-63
2021/04/30 06:01:53;;;;;;;29.13;17.60;;;5.90;99.90;;;;;;5032931;28;20029;-62
2021/04/30 06:04:19;;;;;;;25.73;17.45;;;6.00;99.90;;;;;;5038515;28;20060;-63
2021/04/30 06:06:50;;;;;;;27.17;17.17;;;6.00;99.90;;;;;;5041871;28;20386;-64
2021/04/30 06:09:17;;;;;;;38.33;28.20;;;6.00;99.90;;;;;;5049113;28;20032;-64
2021/04/30 06:11:43;;;;;;;31.73;21.52;;;6.00;99.90;;;;;;5024729;28;20038;-59
2021/04/30 06:14:10;;;;;;;28.52;17.45;;;6.10;99.90;;;;;;5046633;28;20151;-63
2021/04/30 06:16:36;;;;;;;30.98;16.30;;;6.10;99.90;;;;;;5042253;28;20171;-63
2021/04/30 06:19:02;;;;;;;27.70;16.33;;;6.20;99.90;;;;;;5038998;28;20534;-62
2021/04/30 06:21:28;;;;;;;28.98;15.85;;;6.40;99.90;;;;;;5038672;28;20075;-64
2021/04/30 06:23:53;;;;;;;33.08;21.67;;;6.60;99.90;;;;;;5046922;28;20442;-62
2021/04/30 06:26:19;;;;;;;25.40;15.88;;;6.60;99.90;;;;;;5050860;28;20021;-64
2021/04/30 06:28:44;;;;;;;24.73;15.70;;;6.50;99.90;;;;;;5050531;28;20485;-63
2021/04/30 06:31:10;;;;;;;28.33;16.75;;;6.50;99.90;;;;;;5060479;28;20439;-64
2021/04/30 06:33:35;;;;;;;25.40;15.75;;;6.50;99.90;;;;;;5046902;28;20358;-63
2021/04/30 06:36:01;;;;;;;27.73;16.52;;;6.70;99.90;;;;;;5054405;28;20032;-64
2021/04/30 06:38:26;;;;;;;31.00;16.90;;;6.70;99.90;;;;;;5043459;28;20033;-63
2021/04/30 06:40:52;;;;;;;30.10;17.85;;;6.70;99.90;;;;;;5057350;28;20413;-63
2021/04/30 06:43:18;;;;;;;31.35;15.80;;;6.70;99.90;;;;;;5047483;28;20406;-64
2021/04/30 06:45:43;;;;;;;29.25;15.88;;;6.80;99.90;;;;;;5056193;28;20035;-58
2021/04/30 06:48:09;;;;;;;29.70;15.05;;;7.00;99.90;;;;;;5059057;28;20031;-63
2021/04/30 06:50:35;;;;;;;30.15;17.17;;;6.90;99.90;;;;;;5062550;28;20040;-63
2021/04/30 06:53:00;;;;;;;30.15;16.92;;;6.80;99.90;;;;;;5056848;28;20087;-62
2021/04/30 06:55:26;;;;;;;40.25;18.50;;;6.90;99.90;;;;;;5059846;28;20121;-64
2021/04/30 06:57:51;;;;;;;27.73;15.98;;;7.10;99.90;;;;;;5063724;28;20720;-64
2021/04/30 07:00:17;;;;;;;28.90;15.55;;;7.10;99.90;;;;;;5047191;28;20055;-64
2021/04/30 07:02:44;;;;;;;29.17;15.90;;;7.00;99.90;;;;;;5058685;28;20040;-64
2021/04/30 07:05:10;;;;;;;29.02;15.90;;;7.20;99.90;;;;;;5059494;28;20028;-63
2021/04/30 07:07:36;;;;;;;30.48;15.65;;;7.20;99.90;;;;;;5048724;28;20425;-64
2021/04/30 07:10:03;;;;;;;26.25;16.05;;;7.20;99.90;;;;;;5055751;28;20021;-64
2021/04/30 07:12:28;;;;;;;23.77;16.00;;;7.10;99.90;;;;;;5038370;28;20067;-64
2021/04/30 07:14:54;;;;;;;24.00;15.05;;;7.20;99.90;;;;;;5060728;28;20482;-63
2021/04/30 07:17:19;;;;;;;21.00;13.80;;;7.30;99.90;;;;;;5061575;28;20024;-64
2021/04/30 07:19:45;;;;;;;25.00;15.15;;;7.30;99.90;;;;;;5050990;28;20029;-59
2021/04/30 07:22:11;;;;;;;28.08;15.32;;;7.20;99.90;;;;;;5063578;28;20052;-64
2021/04/30 07:24:37;;;;;;;32.42;14.93;;;7.20;99.90;;;;;;5047455;28;20060;-64
2021/04/30 07:27:07;;;;;;;26.10;15.65;;;7.10;99.90;;;;;;5058529;28;20059;-64
2021/04/30 07:29:34;;;;;;;29.08;15.70;;;7.20;99.90;;;;;;5046748;28;20107;-64
2021/04/30 07:32:00;;;;;;;33.85;18.13;;;7.20;99.90;;;;;;5061189;28;20029;-63
2021/04/30 07:34:25;;;;;;;27.50;17.77;;;7.10;99.90;;;;;;5050435;28;20028;-64
2021/04/30 07:36:51;;;;;;;34.20;18.27;;;7.10;99.90;;;;;;5056027;28;20406;-65
2021/04/30 07:39:16;;;;;;;25.65;17.45;;;7.20;99.90;;;;;;5051765;28;20057;-64
2021/04/30 07:41:42;;;;;;;28.52;16.80;;;7.20;99.90;;;;;;5058349;28;20044;-61
2021/04/30 07:44:08;;;;;;;37.38;18.23;;;7.20;99.90;;;;;;5049043;28;20025;-63
2021/04/30 07:46:33;;;;;;;31.13;18.35;;;7.30;99.90;;;;;;5057282;28;20032;-62
2021/04/30 07:48:59;;;;;;;28.20;18.00;;;7.30;99.90;;;;;;5049770;28;20048;-64
2021/04/30 07:51:25;;;;;;;32.67;17.10;;;7.30;99.90;;;;;;5056310;28;20394;-63
2021/04/30 07:53:51;;;;;;;37.28;18.48;;;7.20;99.90;;;;;;5047620;28;20020;-64
2021/04/30 07:56:16;;;;;;;30.40;17.42;;;7.30;99.90;;;;;;5059453;28;20020;-64
2021/04/30 07:58:42;;;;;;;24.85;17.30;;;7.30;99.90;;;;;;5050123;28;20025;-64
2021/04/30 08:01:07;;;;;;;33.72;16.63;;;7.40;99.90;;;;;;5045229;28;20027;-63
2021/04/30 08:03:33;;;;;;;25.67;16.67;;;7.60;99.90;;;;;;5059492;28;20017;-64
2021/04/30 08:05:58;;;;;;;32.05;17.42;;;7.50;99.90;;;;;;5057681;28;20056;-64
2021/04/30 08:08:24;;;;;;;28.95;18.45;;;7.60;99.90;;;;;;5059056;28;20033;-63
2021/04/30 08:10:50;;;;;;;30.08;18.27;;;7.60;99.90;;;;;;5052314;28;20096;-64
2021/04/30 08:13:16;;;;;;;37.70;19.30;;;7.60;99.90;;;;;;5036878;28;20083;-63
2021/04/30 08:15:41;;;;;;;30.83;17.75;;;7.60;99.90;;;;;;5044904;28;20029;-64
2021/04/30 08:18:07;;;;;;;43.85;18.42;;;7.70;99.90;;;;;;5046594;28;20035;-60
2021/04/30 08:20:33;;;;;;;37.75;17.88;;;7.80;99.90;;;;;;5047045;28;20029;-63
2021/04/30 08:22:59;;;;;;;30.73;18.30;;;7.80;99.90;;;;;;5042005;28;20030;-65
2021/04/30 08:25:25;;;;;;;35.00;17.05;;;7.80;99.90;;;;;;5041530;28;20052;-63
2021/04/30 08:27:50;;;;;;;39.83;17.88;;;7.90;99.90;;;;;;5032741;28;20028;-63
2021/04/30 08:30:17;;;;;;;33.28;18.52;;;7.90;99.90;;;;;;5045414;28;20414;-64
2021/04/30 08:32:43;;;;;;;37.28;19.60;;;7.90;99.90;;;;;;5048562;28;20425;-64
2021/04/30 08:35:09;;;;;;;33.97;19.58;;;8.00;99.90;;;;;;5041990;28;20131;-62
2021/04/30 08:37:35;;;;;;;30.35;17.77;;;8.20;99.90;;;;;;5043740;28;20422;-62
2021/04/30 08:40:01;;;;;;;39.53;18.80;;;8.10;99.90;;;;;;5042448;28;20501;-63
2021/04/30 08:42:27;;;;;;;31.42;16.63;;;8.30;99.90;;;;;;5038940;28;20029;-64
2021/04/30 08:44:54;;;;;;;31.42;17.55;;;8.30;99.90;;;;;;5040294;28;20368;-63
2021/04/30 08:47:20;;;;;;;33.67;18.20;;;8.20;99.90;;;;;;5044251;28;20120;-63
2021/04/30 08:49:48;;;;;;;32.75;19.77;;;8.50;99.90;;;;;;5047587;28;20017;-61
2021/04/30 08:52:16;;;;;;;41.65;18.67;;;8.60;99.90;;;;;;5043240;28;20029;-63
2021/04/30 08:54:42;;;;;;;38.97;21.23;;;8.50;99.90;;;;;;5048365;28;20074;-62
2021/04/30 08:57:10;;;;;;;31.20;19.33;;;8.50;99.90;;;;;;5052278;28;20029;-63
2021/04/30 08:59:36;;;;;;;32.05;19.40;;;8.30;99.90;;;;;;5052271;28;20067;-63
2021/04/30 09:02:02;;;;;;;41.05;18.10;;;8.20;99.90;;;;;;5046613;28;20117;-63
2021/04/30 09:04:31;;;;;;;28.75;17.50;;;8.40;99.90;;;;;;5060537;28;20037;-64
2021/04/30 09:07:11;;;;;;;32.88;18.65;;;8.30;99.90;;;;;;5053956;28;20705;-62
2021/04/30 09:09:55;;;;;;;34.63;19.33;;;8.30;99.90;;;;;;5043419;28;20028;-62
2021/04/30 09:12:22;;;;;;;40.53;23.15;;;8.10;99.90;;;;;;5064853;28;20401;-63
2021/04/30 09:14:48;;;;;;;38.55;19.70;;;8.10;99.90;;;;;;5038583;28;20045;-63
2021/04/30 09:17:15;;;;;;;29.65;20.10;;;8.20;99.90;;;;;;5046494;28;20037;-61
2021/04/30 09:19:46;;;;;;;42.00;24.75;;;8.20;99.90;;;;;;5052976;28;20032;-62
2021/04/30 09:22:12;;;;;;;35.78;18.42;;;8.20;99.90;;;;;;5059869;28;20031;-63
2021/04/30 09:24:38;;;;;;;33.17;17.10;;;8.10;99.90;;;;;;5058551;28;20488;-63
2021/04/30 09:27:05;;;;;;;36.90;18.83;;;8.20;99.90;;;;;;5061233;28;20025;-60
2021/04/30 09:29:34;;;;;;;40.38;18.48;;;8.30;99.90;;;;;;5058402;28;20028;-63
2021/04/30 09:32:02;;;;;;;30.67;17.90;;;8.40;99.90;;;;;;5055193;28;20032;-63
2021/04/30 09:34:30;;;;;;;32.92;17.98;;;8.50;99.90;;;;;;5052282;28;20029;-63
2021/04/30 09:37:03;;;;;;;30.88;17.63;;;8.50;99.90;;;;;;5043947;28;20029;-62
2021/04/30 09:39:45;;;;;;;55.50;30.73;;;8.80;99.90;;;;;;5043395;28;20029;-63
2021/04/30 09:42:15;;;;;;;41.15;19.75;;;9.10;99.90;;;;;;5049578;28;20037;-63
2021/04/30 09:44:42;;;;;;;36.40;19.48;;;9.30;99.90;;;;;;5049785;28;20043;-63
2021/04/30 09:47:15;;;;;;;39.75;18.33;;;9.60;99.90;;;;;;5067563;28;20115;-63
2021/04/30 09:49:40;;;;;;;38.03;19.13;;;10.00;99.90;;;;;;5045253;28;20025;-62
2021/04/30 09:52:09;;;;;;;32.25;18.00;;;10.00;99.90;;;;;;5056188;28;20079;-62
2021/04/30 09:54:38;;;;;;;30.23;17.38;;;10.10;99.90;;;;;;5047180;28;20079;-62
2021/04/30 09:57:06;;;;;;;34.25;17.92;;;10.40;99.90;;;;;;5047381;28;20063;-63
2021/04/30 09:59:37;;;;;;;30.70;17.58;;;10.60;99.90;;;;;;5037206;28;20540;-56
2021/04/30 10:02:23;;;;;;;28.05;18.00;;;10.60;99.90;;;;;;5049634;28;20040;-63
2021/04/30 10:04:52;;;;;;;32.55;18.40;;;10.20;99.90;;;;;;5045680;28;20065;-63
2021/04/30 10:07:26;;;;;;;30.92;18.08;;;10.20;99.90;;;;;;5049618;28;20025;-63
2021/04/30 10:10:19;;;;;;;43.25;19.50;;;10.30;99.90;;;;;;5049320;28;20032;-62
2021/04/30 10:12:51;;;;;;;29.73;18.63;;;10.40;99.90;;;;;;5063428;28;20439;-63
2021/04/30 10:15:19;;;;;;;39.20;18.75;;;10.30;99.90;;;;;;5054482;28;20044;-63
2021/04/30 10:17:46;;;;;;;36.30;19.23;;;10.30;99.90;;;;;;5048600;28;20475;-58
2021/04/30 10:20:12;;;;;;;42.53;20.30;;;10.40;99.90;;;;;;5052969;28;20455;-62
2021/04/30 10:22:41;;;;;;;34.92;18.70;;;10.10;99.90;;;;;;5032951;28;20394;-62
2021/04/30 10:25:10;;;;;;;29.65;17.55;;;10.30;99.90;;;;;;5045534;28;20037;-63
2021/04/30 10:27:39;;;;;;;38.63;19.48;;;10.40;99.90;;;;;;5051690;28;20013;-63
2021/04/30 10:30:21;;;;;;;31.02;18.60;;;10.50;99.90;;;;;;5046871;28;20099;-63
2021/04/30 10:32:52;;;;;;;38.97;19.00;;;10.70;99.90;;;;;;5052602;28;20013;-63
2021/04/30 10:35:33;;;;;;;38.30;19.25;;;11.40;99.90;;;;;;5045647;28;20032;-63
2021/04/30 10:38:05;;;;;;;37.33;17.73;;;11.60;99.90;;;;;;5053095;28;20503;-62
2021/04/30 10:40:31;;;;;;;27.83;17.30;;;11.50;99.90;;;;;;5041068;28;20029;-63
2021/04/30 10:42:58;;;;;;;36.67;17.05;;;11.80;99.90;;;;;;5042446;28;20029;-63
2021/04/30 10:45:24;;;;;;;31.80;18.63;;;12.60;99.40;;;;;;5049216;28;20028;-63
2021/04/30 10:48:08;;;;;;;45.40;18.35;;;12.40;99.00;;;;;;5059943;28;20072;-62
2021/04/30 10:50:35;;;;;;;32.63;17.83;;;12.40;99.40;;;;;;5059080;28;20559;-62
2021/04/30 10:53:21;;;;;;;34.88;19.52;;;12.00;99.30;;;;;;5053624;28;20095;-62
2021/04/30 10:55:47;;;;;;;45.53;21.48;;;11.90;99.80;;;;;;5048062;28;20114;-61
2021/04/30 10:58:36;;;;;;;34.85;17.40;;;12.70;99.30;;;;;;5038906;28;20052;-64
2021/04/30 11:01:33;;;;;;;35.83;18.30;;;13.40;98.70;;;;;;5043374;28;20039;-62
2021/04/30 11:04:07;;;;;;;29.85;16.75;;;13.90;97.30;;;;;;5051226;28;20573;-63
2021/04/30 11:06:45;;;;;;;32.00;15.82;;;13.90;96.50;;;;;;5055431;28;20033;-63
2021/04/30 11:09:12;;;;;;;28.88;15.50;;;13.60;96.40;;;;;;5061037;28;20020;-62
2021/04/30 11:11:41;;;;;;;27.90;15.45;;;13.50;96.50;;;;;;5049368;28;20025;-62
2021/04/30 11:14:18;;;;;;;31.30;15.43;;;12.80;97.40;;;;;;5037418;28;20048;-63
2021/04/30 11:16:44;;;;;;;28.80;16.85;;;13.10;97.20;;;;;;5048056;28;20036;-63
2021/04/30 11:19:10;;;;;;;25.88;15.27;;;13.00;97.30;;;;;;5050870;28;20021;-63
2021/04/30 11:21:41;;;;;;;29.20;16.67;;;13.00;97.40;;;;;;5061034;28;20078;-62
2021/04/30 11:24:41;;;;;;;24.92;15.48;;;13.00;97.10;;;;;;5048372;28;20041;-63
2021/04/30 11:27:29;;;;;;;34.97;17.75;;;12.70;97.80;;;;;;5056800;28;20066;-63
2021/04/30 11:30:17;;;;;;;38.85;19.83;;;12.70;98.40;;;;;;5060842;28;20071;-61
2021/04/30 11:32:49;;;;;;;33.45;16.98;;;12.90;98.10;;;;;;5060949;28;20051;-62
2021/04/30 11:35:15;;;;;;;30.67;17.15;;;12.70;98.20;;;;;;5047765;28;20040;-62
2021/04/30 11:37:42;;;;;;;31.77;17.73;;;12.60;98.60;;;;;;5050931;28;20087;-63
2021/04/30 11:40:11;;;;;;;29.52;16.80;;;12.70;98.50;;;;;;5054464;28;20024;-62
2021/04/30 11:42:37;;;;;;;29.02;16.95;;;12.40;99.70;;;;;;5036167;28;20028;-63
2021/04/30 11:45:03;;;;;;;33.33;15.13;;;12.90;98.80;;;;;;5030751;28;20033;-62
2021/04/30 11:47:40;;;;;;;23.98;14.10;;;12.70;98.50;;;;;;5031296;28;20034;-62
2021/04/30 11:50:08;;;;;;;26.00;14.90;;;13.00;98.50;;;;;;5034938;28;20051;-60
2021/04/30 11:52:41;;;;;;;27.05;14.23;;;13.20;97.80;;;;;;5036860;28;20096;-62
2021/04/30 11:55:16;;;;;;;26.23;14.30;;;13.40;97.30;;;;;;5057435;28;20123;-63
2021/04/30 11:57:48;;;;;;;25.75;15.40;;;13.60;97.10;;;;;;5047465;28;20036;-63
2021/04/30 12:00:26;;;;;;;29.90;15.98;;;14.00;96.80;;;;;;5037867;28;20025;-62
2021/04/30 12:03:06;;;;;;;22.73;13.27;;;13.90;96.40;;;;;;5054431;28;20029;-61
2021/04/30 12:05:32;;;;;;;24.65;13.77;;;13.80;96.00;;;;;;5046261;28;20067;-61
2021/04/30 12:07:59;;;;;;;27.60;15.77;;;13.70;96.80;;;;;;5057260;28;20041;-64
2021/04/30 12:10:30;;;;;;;27.15;14.32;;;13.80;96.50;;;;;;5050991;28;20112;-62
2021/04/30 12:12:56;;;;;;;23.45;13.02;;;14.00;95.80;;;;;;5047826;28;20071;-63
2021/04/30 12:15:37;;;;;;;26.15;13.35;;;14.10;95.30;;;;;;5027989;28;20053;-62
2021/04/30 12:18:03;;;;;;;33.33;15.82;;;14.30;95.20;;;;;;5049295;28;20020;-64
2021/04/30 12:20:32;;;;;;;26.17;12.10;;;14.40;95.10;;;;;;5050941;28;20029;-64
2021/04/30 12:23:05;;;;;;;17.83;11.27;;;14.30;94.30;;;;;;5044687;28;20032;-63
2021/04/30 12:25:47;;;;;;;20.38;10.98;;;13.60;94.90;;;;;;5041102;28;20221;-62
2021/04/30 12:28:26;;;;;;;16.98;10.18;;;13.30;94.40;;;;;;5036690;28;20094;-63
2021/04/30 12:30:58;;;;;;;16.33;8.88;;;13.90;94.20;;;;;;5039757;28;20083;-64
2021/04/30 12:33:26;;;;;;;22.40;13.32;;;14.00;93.20;;;;;;5041463;28;20022;-64
2021/04/30 12:35:53;;;;;;;23.75;11.63;;;13.70;93.90;;;;;;5040545;28;20017;-64
2021/04/30 12:38:20;;;;;;;17.52;11.18;;;13.60;95.00;;;;;;5039391;28;20112;-62